createdAt,value
2019-04-05T00:02:14.225Z,12.93
2019-04-05T00:04:42.893Z,13.33
2019-04-05T00:07:30.869Z,12.20
2019-04-05T00:09:59.462Z,12.10
2019-04-05T00:12:28.099Z,13.90
2019-04-05T00:15:16.308Z,15.67
2019-04-05T00:17:44.977Z,14.67
2019-04-05T00:20:15.204Z,13.00
2019-04-05T00:22:44.703Z,14.83
2019-04-05T00:25:15.042Z,16.63
2019-04-05T00:27:43.821Z,18.57
2019-04-05T00:30:13.064Z,17.67
2019-04-05T00:32:41.685Z,19.10
2019-04-05T00:35:10.352Z,15.97
2019-04-05T00:37:58.326Z,17.57
2019-04-05T00:40:26.923Z,16.17
2019-04-05T00:42:56.034Z,14.03
2019-04-05T00:45:28.459Z,14.33
2019-04-05T00:47:55.053Z,15.63
2019-04-05T00:50:43.057Z,14.17
2019-04-05T00:53:11.692Z,14.70
2019-04-05T00:55:40.430Z,14.37
2019-04-05T00:58:09.069Z,15.47
2019-04-05T01:00:37.996Z,14.53
2019-04-05T01:03:25.968Z,14.87
2019-04-05T01:05:54.557Z,15.90
2019-04-05T01:08:23.397Z,15.07
2019-04-05T01:10:52.135Z,16.00
2019-04-05T01:13:20.833Z,15.87
2019-04-05T01:15:49.566Z,15.10
2019-04-05T01:18:37.600Z,14.30
2019-04-05T01:21:07.906Z,15.37
2019-04-05T01:23:36.542Z,15.07
2019-04-05T01:26:05.274Z,14.70
2019-04-05T01:28:34.474Z,15.20
2019-04-05T01:31:03.211Z,15.67
2019-04-05T01:33:31.852Z,16.57
2019-04-05T01:36:00.586Z,15.53
2019-04-05T01:38:29.389Z,17.17
2019-04-05T01:40:59.300Z,16.97
2019-04-05T01:43:28.101Z,18.47
2019-04-05T01:45:57.528Z,15.73
2019-04-05T01:48:27.709Z,18.17
2019-04-05T01:50:56.441Z,17.10
2019-04-05T01:53:25.136Z,16.47
2019-04-05T01:55:53.868Z,15.73
2019-04-05T01:58:22.505Z,16.30
2019-04-05T02:01:10.506Z,15.10
2019-04-05T02:03:39.069Z,15.63
2019-04-05T02:06:07.803Z,16.60
2019-04-05T02:08:37.213Z,18.93
2019-04-05T02:11:05.953Z,18.70
2019-04-05T02:13:34.589Z,17.53
2019-04-05T02:16:06.757Z,21.37
2019-04-05T02:18:33.529Z,20.17
2019-04-05T02:21:02.269Z,19.00
2019-04-05T02:23:50.241Z,20.23
2019-04-05T02:26:18.973Z,18.10
2019-04-05T02:29:06.949Z,17.37
2019-04-05T02:31:35.551Z,19.07
2019-04-05T02:34:04.756Z,20.27
2019-04-05T02:36:33.469Z,19.53
2019-04-05T02:39:02.101Z,18.37
2019-04-05T02:41:31.838Z,26.10
2019-04-05T02:44:01.044Z,21.73
2019-04-05T02:46:31.885Z,19.13
2019-04-05T02:49:20.860Z,18.83
2019-04-05T02:51:49.701Z,20.47
2019-04-05T02:54:37.849Z,20.00
2019-04-05T02:57:07.218Z,19.03
2019-04-05T02:59:55.190Z,20.57
2019-04-05T03:02:24.070Z,22.73
2019-04-05T03:04:54.236Z,18.17
2019-04-05T03:07:23.466Z,17.47
2019-04-05T03:09:52.370Z,17.43
2019-04-05T03:12:21.702Z,18.30
2019-04-05T03:14:51.111Z,17.70
2019-04-05T03:17:21.537Z,17.23
2019-04-05T03:19:52.236Z,18.10
2019-04-05T03:22:22.669Z,19.23
2019-04-05T03:24:51.905Z,18.20
2019-04-05T03:27:23.587Z,19.47
2019-04-05T03:29:53.093Z,16.77
2019-04-05T03:32:22.434Z,17.20
2019-04-05T03:34:51.340Z,16.63
2019-04-05T03:37:20.870Z,16.50
2019-04-05T03:39:49.570Z,19.07
2019-04-05T03:42:18.415Z,20.10
2019-04-05T03:44:48.018Z,16.27
2019-04-05T03:47:16.871Z,19.13
2019-04-05T03:49:46.258Z,18.53
2019-04-05T03:52:15.104Z,17.17
2019-04-05T03:54:44.012Z,20.30
2019-04-05T03:57:32.018Z,20.80
2019-04-05T04:00:00.644Z,21.57
2019-04-05T04:02:29.417Z,23.80
2019-04-05T04:04:58.057Z,21.03
2019-04-05T04:07:26.879Z,18.47
2019-04-05T04:09:55.687Z,21.67
2019-04-05T04:12:43.677Z,20.60
2019-04-05T04:15:15.605Z,18.90
2019-04-05T04:17:45.139Z,20.87
2019-04-05T04:20:34.574Z,19.00
2019-04-05T04:23:04.307Z,19.37
2019-04-05T04:25:33.408Z,17.40
2019-04-05T04:28:02.345Z,18.47
2019-04-05T04:30:31.758Z,18.83
2019-04-05T04:33:01.795Z,17.63
2019-04-05T04:35:30.724Z,17.77
2019-04-05T04:37:59.969Z,19.43
2019-04-05T04:40:29.080Z,17.30
2019-04-05T04:42:58.113Z,21.23
2019-04-05T04:45:26.829Z,17.37
2019-04-05T04:47:55.662Z,19.73
2019-04-05T04:50:24.833Z,18.67
2019-04-05T04:52:53.866Z,19.07
2019-04-05T04:55:41.842Z,20.13
2019-04-05T04:58:10.672Z,19.77
2019-04-05T05:00:39.375Z,18.80
2019-04-05T05:03:08.206Z,20.40
2019-04-05T05:05:56.182Z,19.27
2019-04-05T05:08:24.853Z,19.57
2019-04-05T05:10:53.655Z,20.53
2019-04-05T05:13:23.088Z,21.00
2019-04-05T05:15:52.391Z,21.33
2019-04-05T05:18:21.226Z,21.17
2019-04-05T05:20:50.040Z,22.17
2019-04-05T05:23:18.868Z,18.97
2019-04-05T05:25:47.673Z,22.40
2019-04-05T05:28:16.812Z,20.43
2019-04-05T05:30:45.612Z,22.93
2019-04-05T05:33:14.486Z,26.13
2019-04-05T05:35:44.905Z,23.13
2019-04-05T05:38:18.156Z,24.73
2019-04-05T05:40:48.310Z,26.60
2019-04-05T05:43:18.551Z,23.13
2019-04-05T05:45:51.122Z,24.07
2019-04-05T05:48:24.177Z,27.07
2019-04-05T05:50:53.289Z,25.33
2019-04-05T05:53:26.998Z,30.80
2019-04-05T05:55:59.625Z,32.07
2019-04-05T05:58:28.622Z,29.07
2019-04-05T06:00:58.566Z,29.67
2019-04-05T06:03:27.156Z,31.47
2019-04-05T06:06:04.253Z,33.83
2019-04-05T06:08:29.048Z,35.00
2019-04-05T06:10:56.541Z,33.87
2019-04-05T06:13:25.277Z,43.13
2019-04-05T06:15:53.992Z,38.63
2019-04-05T06:18:24.265Z,40.73
2019-04-05T06:20:52.819Z,41.63
2019-04-05T06:23:33.056Z,38.23
2019-04-05T06:25:51.845Z,40.00
2019-04-05T06:28:20.592Z,38.00
2019-04-05T06:30:49.216Z,41.33
2019-04-05T06:33:30.945Z,40.97
2019-04-05T06:36:12.925Z,41.33
2019-04-05T06:38:41.521Z,42.67
2019-04-05T06:41:10.674Z,37.37
2019-04-05T06:43:58.711Z,38.07
2019-04-05T06:46:27.643Z,37.93
2019-04-05T06:48:56.312Z,38.23
2019-04-05T06:51:25.283Z,36.53
2019-04-05T06:53:53.915Z,36.10
2019-04-05T06:56:22.477Z,33.20
2019-04-05T06:59:03.122Z,34.63
2019-04-05T07:01:31.722Z,32.90
2019-04-05T07:04:00.394Z,33.80
2019-04-05T07:06:30.913Z,33.73
2019-04-05T07:08:59.706Z,33.63
2019-04-05T07:11:28.557Z,34.70
2019-04-05T07:13:57.237Z,34.60
2019-04-05T07:16:26.093Z,37.17
2019-04-05T07:19:14.146Z,32.63
2019-04-05T07:21:42.862Z,33.60
2019-04-05T07:24:11.543Z,32.20
2019-04-05T07:26:40.175Z,31.40
2019-04-05T07:29:28.427Z,33.93
2019-04-05T07:31:57.078Z,32.10
2019-04-05T07:34:25.813Z,31.57
2019-04-05T07:36:54.384Z,28.07
2019-04-05T07:39:23.057Z,32.03
2019-04-05T07:41:51.768Z,28.73
2019-04-05T07:44:20.831Z,31.37
2019-04-05T07:46:49.595Z,30.63
2019-04-05T07:49:37.637Z,29.70
2019-04-05T07:52:06.271Z,29.07
2019-04-05T07:54:54.283Z,30.53
2019-04-05T07:57:22.922Z,25.17
2019-04-05T07:59:51.537Z,27.50
2019-04-05T08:02:41.069Z,27.23
2019-04-05T08:05:16.473Z,30.03
2019-04-05T08:07:48.371Z,26.30
2019-04-05T08:10:17.137Z,26.77
2019-04-05T08:12:47.683Z,26.67
2019-04-05T08:15:16.361Z,25.27
2019-04-05T08:18:04.382Z,26.20
2019-04-05T08:20:52.382Z,24.70
2019-04-05T08:23:20.949Z,23.90
2019-04-05T08:25:49.616Z,23.83
2019-04-05T08:28:18.189Z,30.07
2019-04-05T08:31:10.574Z,25.50
2019-04-05T08:33:36.705Z,27.13
2019-04-05T08:36:05.680Z,22.23
2019-04-05T08:38:34.313Z,24.63
2019-04-05T08:41:15.443Z,28.60
2019-04-05T08:43:46.952Z,26.27
2019-04-05T08:46:14.967Z,24.23
2019-04-05T08:48:43.669Z,25.33
2019-04-05T08:51:31.672Z,22.60
2019-04-05T08:54:00.278Z,25.57
2019-04-05T08:56:28.914Z,25.40
2019-04-05T08:58:57.476Z,22.97
2019-04-05T09:01:26.143Z,21.57
2019-04-05T09:03:54.782Z,21.87
2019-04-05T09:06:23.445Z,20.20
2019-04-05T09:09:11.454Z,21.30
2019-04-05T09:11:40.093Z,23.77
2019-04-05T09:14:28.029Z,21.70
2019-04-05T09:16:56.608Z,24.53
2019-04-05T09:19:25.218Z,22.40
2019-04-05T09:21:53.844Z,23.33
2019-04-05T09:24:34.667Z,28.10
2019-04-05T09:27:03.367Z,24.60
2019-04-05T09:29:32.032Z,23.07
2019-04-05T09:32:00.682Z,15.03
2019-04-05T09:34:29.359Z,11.53
2019-04-05T09:36:57.921Z,14.57
2019-04-05T09:39:26.602Z,15.80
2019-04-05T09:41:55.285Z,16.10
2019-04-05T09:44:43.294Z,16.77
2019-04-05T09:47:11.938Z,16.13
2019-04-05T09:49:40.600Z,21.63
2019-04-05T09:52:09.236Z,19.03
2019-04-05T09:54:37.904Z,14.00
2019-04-05T09:57:06.475Z,15.37
2019-04-05T09:59:35.148Z,13.83
2019-04-05T10:02:03.785Z,14.37
2019-04-05T10:04:32.521Z,15.87
2019-04-05T10:07:03.978Z,14.57
2019-04-05T10:09:53.431Z,13.27
2019-04-05T10:12:21.998Z,15.67
2019-04-05T10:14:50.703Z,16.33
2019-04-05T10:17:19.444Z,14.47
2019-04-05T10:19:49.990Z,13.60
2019-04-05T10:22:18.324Z,13.00
2019-04-05T10:24:46.893Z,15.13
2019-04-05T10:27:15.569Z,12.70
2019-04-05T10:29:44.160Z,14.27
2019-04-05T10:32:32.169Z,16.30
2019-04-05T10:35:00.767Z,15.20
2019-04-05T10:37:29.477Z,12.93
2019-04-05T10:39:58.149Z,13.03
2019-04-05T10:42:34.475Z,12.07
2019-04-05T10:45:08.058Z,16.40
2019-04-05T10:47:37.004Z,12.10
2019-04-05T10:50:08.342Z,11.13
2019-04-05T10:52:39.608Z,10.57
2019-04-05T10:55:09.858Z,7.93
2019-04-05T10:57:38.461Z,11.57
2019-04-05T11:00:10.197Z,7.93
2019-04-05T11:02:38.860Z,6.63
2019-04-05T11:05:07.705Z,6.53
2019-04-05T11:07:37.544Z,8.40
2019-04-05T11:10:09.134Z,7.57
2019-04-05T11:12:37.916Z,6.73
2019-04-05T11:15:07.899Z,6.77
2019-04-05T11:17:36.565Z,6.80
2019-04-05T11:20:28.698Z,6.90
2019-04-05T11:22:57.336Z,10.87
2019-04-05T11:25:25.969Z,7.70
2019-04-05T11:27:54.801Z,7.17
2019-04-05T11:30:41.767Z,7.27
2019-04-05T11:33:10.468Z,9.13
2019-04-05T11:35:39.345Z,8.10
2019-04-05T11:38:08.343Z,9.07
2019-04-05T11:40:37.238Z,9.43
2019-04-05T11:43:05.968Z,10.23
2019-04-05T11:45:36.397Z,8.67
2019-04-05T11:48:06.696Z,9.80
2019-04-05T11:50:35.446Z,10.57
2019-04-05T11:53:04.182Z,10.03
2019-04-05T11:55:32.824Z,10.17
2019-04-05T11:58:01.408Z,10.03
2019-04-05T12:00:31.683Z,10.50
2019-04-05T12:03:04.954Z,9.77
2019-04-05T12:05:33.752Z,9.57
2019-04-05T12:08:02.349Z,10.93
2019-04-05T12:10:32.136Z,11.03
2019-04-05T12:13:00.777Z,10.57
2019-04-05T12:15:48.753Z,10.47
2019-04-05T12:18:19.554Z,9.10
2019-04-05T12:20:55.455Z,9.87
2019-04-05T12:23:18.012Z,10.00
2019-04-05T12:25:46.574Z,8.83
2019-04-05T12:28:15.174Z,12.23
2019-04-05T12:30:46.109Z,9.47
2019-04-05T12:33:15.024Z,10.33
2019-04-05T12:35:45.142Z,10.60
2019-04-05T12:38:27.992Z,10.37
2019-04-05T12:40:45.728Z,11.00
2019-04-05T12:43:14.397Z,11.90
2019-04-05T12:45:44.760Z,13.47
2019-04-05T12:48:32.691Z,19.13
2019-04-05T12:51:01.845Z,13.67
2019-04-05T12:53:31.735Z,14.73
2019-04-05T12:56:00.382Z,16.97
2019-04-05T12:58:29.050Z,15.27
2019-04-05T13:00:57.623Z,15.90
2019-04-05T13:03:26.294Z,15.23
2019-04-05T13:05:57.151Z,16.83
2019-04-05T13:08:25.313Z,20.70
2019-04-05T13:10:55.888Z,18.90
2019-04-05T13:13:26.586Z,24.17
2019-04-05T13:15:54.421Z,16.80
2019-04-05T13:18:25.189Z,18.77
2019-04-05T13:20:53.369Z,22.57
2019-04-05T13:23:21.964Z,19.53
2019-04-05T13:25:51.093Z,20.80
2019-04-05T13:28:19.687Z,17.60
2019-04-05T13:30:49.315Z,18.47
2019-04-05T13:33:19.317Z,18.27
2019-04-05T13:35:47.888Z,20.17
2019-04-05T13:38:36.893Z,20.03
2019-04-05T13:41:05.689Z,20.43
2019-04-05T13:43:34.356Z,20.70
2019-04-05T13:46:03.129Z,22.33
2019-04-05T13:48:31.726Z,22.60
2019-04-05T13:51:27.934Z,20.43
2019-04-05T13:54:10.948Z,24.60
2019-04-05T13:56:41.396Z,25.70
2019-04-05T13:59:09.961Z,22.03
2019-04-05T14:01:38.673Z,25.27
2019-04-05T14:04:07.340Z,23.67
2019-04-05T14:06:55.307Z,27.83
2019-04-05T14:09:23.902Z,21.60
2019-04-05T14:12:11.872Z,24.53
2019-04-05T14:14:41.544Z,26.50
2019-04-05T14:17:11.413Z,24.23
2019-04-05T14:19:41.261Z,25.97
2019-04-05T14:22:09.834Z,30.63
2019-04-05T14:24:38.506Z,26.20
2019-04-05T14:27:07.219Z,26.70
2019-04-05T14:29:35.806Z,24.97
2019-04-05T14:32:19.968Z,23.63
2019-04-05T14:34:34.997Z,24.30
2019-04-05T14:37:03.627Z,23.63
2019-04-05T14:39:51.637Z,24.93
2019-04-05T14:42:20.449Z,25.13
2019-04-05T14:44:49.037Z,24.93
2019-04-05T14:47:19.840Z,25.80
2019-04-05T14:49:47.993Z,25.20
2019-04-05T14:52:16.628Z,26.00
2019-04-05T14:54:45.288Z,23.63
2019-04-05T14:57:13.925Z,25.57
2019-04-05T15:00:01.936Z,28.27
2019-04-05T15:02:30.567Z,27.60
2019-04-05T15:04:59.301Z,26.47
2019-04-05T15:07:28.278Z,25.23
2019-04-05T15:09:56.985Z,29.70
2019-04-05T15:12:28.897Z,27.40
2019-04-05T15:15:15.240Z,29.90
2019-04-05T15:17:48.305Z,28.87
2019-04-05T15:20:34.913Z,32.10
2019-04-05T15:23:03.675Z,26.30
2019-04-05T15:25:32.418Z,28.57
2019-04-05T15:28:00.989Z,27.37
2019-04-05T15:30:29.658Z,28.13
2019-04-05T15:32:59.933Z,30.23
2019-04-05T15:35:28.787Z,203.27
2019-04-05T15:38:01.389Z,37.03
2019-04-05T15:40:47.206Z,36.13
2019-04-05T15:43:15.758Z,33.80
2019-04-05T15:45:44.357Z,37.30
2019-04-05T15:48:12.925Z,34.20
2019-04-05T15:50:41.795Z,35.23
2019-04-05T15:53:11.091Z,34.90
2019-04-05T15:55:39.794Z,33.57
2019-04-05T15:58:08.500Z,34.00
2019-04-05T16:00:44.821Z,34.53
2019-04-05T16:03:14.415Z,34.47
2019-04-05T16:05:44.359Z,39.10
2019-04-05T16:08:14.461Z,40.10
2019-04-05T16:10:45.554Z,43.13
2019-04-05T16:13:13.481Z,41.00
2019-04-05T16:15:42.321Z,33.20
2019-04-05T16:18:30.218Z,37.47
2019-04-05T16:20:58.876Z,34.27
2019-04-05T16:23:27.517Z,37.60
2019-04-05T16:25:56.199Z,35.23
2019-04-05T16:28:24.878Z,36.40
2019-04-05T16:30:53.470Z,34.30
2019-04-05T16:33:22.035Z,36.53
2019-04-05T16:36:10.028Z,40.47
2019-04-05T16:38:58.002Z,37.30
2019-04-05T16:41:26.603Z,37.00
2019-04-05T16:43:55.306Z,37.57
2019-04-05T16:46:23.973Z,34.77
2019-04-05T16:49:11.870Z,37.33
2019-04-05T16:51:40.462Z,31.90
2019-04-05T16:54:09.034Z,36.23
2019-04-05T16:56:37.769Z,35.83
2019-04-05T16:59:07.336Z,40.73
2019-04-05T17:01:35.940Z,39.13
2019-04-05T17:04:04.849Z,42.53
2019-04-05T17:06:52.847Z,41.10
2019-04-05T17:09:21.409Z,61.27
2019-04-05T17:11:50.001Z,55.90
2019-04-05T17:14:18.570Z,39.87
2019-04-05T17:16:47.254Z,41.07
2019-04-05T17:19:15.892Z,52.37
2019-04-05T17:22:03.993Z,48.83
2019-04-05T17:24:32.625Z,41.33
2019-04-05T17:27:01.356Z,43.60
2019-04-05T17:29:29.993Z,39.47
2019-04-05T17:31:58.725Z,40.63
2019-04-05T17:34:27.364Z,43.17
2019-04-05T17:36:56.029Z,40.07
2019-04-05T17:39:24.597Z,41.90
2019-04-05T17:41:53.260Z,44.37
2019-04-05T17:44:21.896Z,40.73
2019-04-05T17:46:50.563Z,40.57
2019-04-05T17:49:38.465Z,42.43
2019-04-05T17:52:26.471Z,38.40
2019-04-05T17:54:55.106Z,42.90
2019-04-05T17:57:43.104Z,45.10
2019-04-05T18:00:15.900Z,46.03
2019-04-05T18:02:44.500Z,43.80
2019-04-05T18:05:32.469Z,55.90
2019-04-05T18:08:01.069Z,47.73
2019-04-05T18:10:29.700Z,50.20
2019-04-05T18:12:58.304Z,48.37
2019-04-05T18:15:52.342Z,44.13
2019-04-05T18:18:16.517Z,46.87
2019-04-05T18:20:45.080Z,42.77
2019-04-05T18:23:33.017Z,42.63
2019-04-05T18:26:01.762Z,45.30
2019-04-05T18:28:30.380Z,42.37
2019-04-05T18:30:59.023Z,42.10
2019-04-05T18:33:27.685Z,41.20
2019-04-05T18:36:15.750Z,43.90
2019-04-05T18:38:44.244Z,44.37
2019-04-05T18:41:32.252Z,42.23
2019-04-05T18:44:00.893Z,40.90
2019-04-05T18:46:48.901Z,43.57
2019-04-05T18:49:17.469Z,41.40
2019-04-05T18:51:46.137Z,39.27
2019-04-05T18:54:14.743Z,39.80
2019-04-05T18:57:02.747Z,41.20
2019-04-05T18:59:31.308Z,41.53
2019-04-05T19:01:59.909Z,42.77
2019-04-05T19:04:28.476Z,37.90
2019-04-05T19:06:57.151Z,40.43
2019-04-05T19:09:45.135Z,39.73
2019-04-05T19:12:13.723Z,41.70
2019-04-05T19:14:42.295Z,41.53
2019-04-05T19:17:22.856Z,58.10
2019-04-05T19:19:41.313Z,41.57
2019-04-05T19:22:09.916Z,41.77
2019-04-05T19:24:38.570Z,39.93
2019-04-05T19:27:07.165Z,44.17
2019-04-05T19:29:35.725Z,46.90
2019-04-05T19:49:55.715Z,44.13
2019-04-05T19:52:24.324Z,41.20
2019-04-05T19:54:52.956Z,43.97
2019-04-05T19:57:21.660Z,43.60
2019-04-05T19:59:50.257Z,43.90
2019-04-05T20:02:18.821Z,41.87
2019-04-05T20:04:47.485Z,41.73
2019-04-05T20:07:16.134Z,43.47
2019-04-05T20:09:44.801Z,38.63
2019-04-05T20:12:13.378Z,38.10
2019-04-05T20:14:41.982Z,36.53
2019-04-05T20:17:10.621Z,37.17
2019-04-05T20:19:39.292Z,32.90
2019-04-05T20:22:07.859Z,36.73
2019-04-05T20:24:36.525Z,36.50
2019-04-05T20:27:05.229Z,42.33
2019-04-05T20:29:33.887Z,38.23
2019-04-05T20:32:02.460Z,32.57
2019-04-05T20:34:31.128Z,37.40
2019-04-05T20:36:59.699Z,37.07
2019-04-05T20:39:47.702Z,35.67
2019-04-05T20:42:35.709Z,37.23
2019-04-05T20:45:05.348Z,41.87
2019-04-05T20:47:33.916Z,37.63
2019-04-05T20:50:02.589Z,33.47
2019-04-05T20:52:31.157Z,38.43
2019-04-05T20:54:59.766Z,39.17
2019-04-05T20:57:28.332Z,37.90
2019-04-05T20:59:57.005Z,37.70
2019-04-05T21:02:25.644Z,40.03
2019-04-05T21:04:54.251Z,37.03
2019-04-05T21:07:22.874Z,34.97
2019-04-05T21:09:51.525Z,39.37
2019-04-05T21:12:20.133Z,37.73
2019-04-05T21:14:48.739Z,38.03
2019-04-05T21:17:17.468Z,36.47
2019-04-05T21:19:46.174Z,35.17
2019-04-05T21:22:14.712Z,35.47
2019-04-05T21:24:43.391Z,37.60
2019-04-05T21:27:12.718Z,37.13
2019-04-05T21:29:41.532Z,35.97
2019-04-05T21:32:10.157Z,33.93
2019-04-05T21:34:38.759Z,37.80
2019-04-05T21:37:07.331Z,34.80
2019-04-05T21:39:36.013Z,37.40
2019-04-05T21:42:04.741Z,42.23
2019-04-05T21:44:52.731Z,39.57
2019-04-05T21:47:21.440Z,37.47
2019-04-05T21:49:50.045Z,36.63
2019-04-05T21:52:18.619Z,36.27
2019-04-05T21:54:47.981Z,36.07
2019-04-05T21:57:18.184Z,39.67
2019-04-05T21:59:46.789Z,41.00
2019-04-05T22:02:34.761Z,43.43
2019-04-05T22:05:04.702Z,41.77
2019-04-05T22:07:33.360Z,40.93
2019-04-05T22:10:01.961Z,42.93
2019-04-05T22:12:30.595Z,41.47
2019-04-05T22:14:59.265Z,44.87
2019-04-05T22:17:27.829Z,45.47
2019-04-05T22:19:56.503Z,43.70
2019-04-05T22:22:27.302Z,40.17
2019-04-05T22:24:59.607Z,40.97
2019-04-05T22:27:27.077Z,41.33
2019-04-05T22:29:55.673Z,42.73
2019-04-05T22:32:24.236Z,45.47
2019-04-05T22:34:52.849Z,43.93
2019-04-05T22:37:21.413Z,39.03
2019-04-05T22:39:50.162Z,40.33
2019-04-05T22:42:18.792Z,39.50
2019-04-05T22:44:47.467Z,42.60
2019-04-05T22:47:35.736Z,40.17
2019-04-05T22:50:06.164Z,42.83
2019-04-05T22:52:34.784Z,41.10
2019-04-05T22:55:11.149Z,47.03
2019-04-05T22:57:33.864Z,44.67
2019-04-05T23:00:02.495Z,45.57
2019-04-05T23:02:31.093Z,43.70
2019-04-05T23:05:00.916Z,46.17
2019-04-05T23:07:29.855Z,43.53
2019-04-05T23:09:58.505Z,44.50
2019-04-05T23:12:46.484Z,41.40
2019-04-05T23:15:15.213Z,41.40
2019-04-05T23:17:43.912Z,34.77
2019-04-05T23:20:31.852Z,41.47
2019-04-05T23:23:00.486Z,40.37
2019-04-05T23:25:29.080Z,41.77
2019-04-05T23:27:57.715Z,42.33
2019-04-05T23:30:27.885Z,43.47
2019-04-05T23:32:56.517Z,43.43
2019-04-05T23:35:25.197Z,43.67
2019-04-05T23:37:53.765Z,44.00
2019-04-05T23:40:22.598Z,40.13
2019-04-05T23:42:51.232Z,45.17
2019-04-05T23:45:19.832Z,44.97
2019-04-05T23:47:48.537Z,44.57
2019-04-05T23:50:17.128Z,44.93
2019-04-05T23:52:45.765Z,46.20
2019-04-05T23:55:14.428Z,44.43
2019-04-05T23:57:43.073Z,41.23
